sensor_id;sensor_type;location;lat;lon;timestamp;pressure;altitude;pressure_sealevel;temperature
8227;BMP180;4154;48.810;9.012;2023-03-01T00:02:21;97723.00;;;-0.80
8227;BMP180;4154;48.810;9.012;2023-03-01T00:04:47;97725.00;;;-0.90
8227;BMP180;4154;48.810;9.012;2023-03-01T00:07:13;97734.00;;;-1.00
8227;BMP180;4154;48.810;9.012;2023-03-01T00:09:39;97734.00;;;-1.00
8227;BMP180;4154;48.810;9.012;2023-03-01T00:12:06;97739.00;;;-1.00
8227;BMP180;4154;48.810;9.012;2023-03-01T00:14:32;97732.00;;;-1.10
8227;BMP180;4154;48.810;9.012;2023-03-01T00:16:59;97727.00;;;-1.10
8227;BMP180;4154;48.810;9.012;2023-03-01T00:19:24;97732.00;;;-1.10
8227;BMP180;4154;48.810;9.012;2023-03-01T00:21:50;97726.00;;;-1.10
8227;BMP180;4154;48.810;9.012;2023-03-01T00:24:16;97738.00;;;-1.10
8227;BMP180;4154;48.810;9.012;2023-03-01T00:26:42;97737.00;;;-1.10
8227;BMP180;4154;48.810;9.012;2023-03-01T00:29:08;97739.00;;;-1.00
8227;BMP180;4154;48.810;9.012;2023-03-01T00:31:34;97733.00;;;-1.00
8227;BMP180;4154;48.810;9.012;2023-03-01T00:34:03;97738.00;;;-1.00
8227;BMP180;4154;48.810;9.012;2023-03-01T00:36:33;97730.00;;;-1.00
8227;BMP180;4154;48.810;9.012;2023-03-01T00:38:59;97730.00;;;-1.00
8227;BMP180;4154;48.810;9.012;2023-03-01T00:41:26;97740.00;;;-1.00
8227;BMP180;4154;48.810;9.012;2023-03-01T00:43:53;97742.00;;;-1.00
8227;BMP180;4154;48.810;9.012;2023-03-01T00:46:25;97723.00;;;-1.10
8227;BMP180;4154;48.810;9.012;2023-03-01T00:48:52;97725.00;;;-1.10
8227;BMP180;4154;48.810;9.012;2023-03-01T00:51:22;97719.00;;;-1.10
8227;BMP180;4154;48.810;9.012;2023-03-01T00:53:53;97722.00;;;-1.10
8227;BMP180;4154;48.810;9.012;2023-03-01T00:56:19;97723.00;;;-1.20
8227;BMP180;4154;48.810;9.012;2023-03-01T00:58:45;97727.00;;;-1.10
8227;BMP180;4154;48.810;9.012;2023-03-01T01:01:21;97720.00;;;-1.10
8227;BMP180;4154;48.810;9.012;2023-03-01T01:03:58;97741.00;;;-1.00
8227;BMP180;4154;48.810;9.012;2023-03-01T01:06:27;97723.00;;;-1.10
8227;BMP180;4154;48.810;9.012;2023-03-01T01:08:54;97721.00;;;-1.10
8227;BMP180;4154;48.810;9.012;2023-03-01T01:11:23;97722.00;;;-1.10
8227;BMP180;4154;48.810;9.012;2023-03-01T01:13:50;97720.00;;;-1.10
8227;BMP180;4154;48.810;9.012;2023-03-01T01:16:18;97719.00;;;-1.20
8227;BMP180;4154;48.810;9.012;2023-03-01T01:18:45;97721.00;;;-1.20
8227;BMP180;4154;48.810;9.012;2023-03-01T01:21:14;97713.00;;;-1.20
8227;BMP180;4154;48.810;9.012;2023-03-01T01:23:42;97711.00;;;-1.20
8227;BMP180;4154;48.810;9.012;2023-03-01T01:26:22;97722.00;;;-1.20
8227;BMP180;4154;48.810;9.012;2023-03-01T01:28:49;97711.00;;;-1.30
8227;BMP180;4154;48.810;9.012;2023-03-01T01:31:15;97704.00;;;-1.20
8227;BMP180;4154;48.810;9.012;2023-03-01T01:33:41;97705.00;;;-1.30
8227;BMP180;4154;48.810;9.012;2023-03-01T01:36:08;97706.00;;;-1.30
8227;BMP180;4154;48.810;9.012;2023-03-01T01:38:35;97695.00;;;-1.30
8227;BMP180;4154;48.810;9.012;2023-03-01T01:41:01;97693.00;;;-1.30
8227;BMP180;4154;48.810;9.012;2023-03-01T01:43:37;97691.00;;;-1.30
8227;BMP180;4154;48.810;9.012;2023-03-01T01:46:33;97689.00;;;-1.40
8227;BMP180;4154;48.810;9.012;2023-03-01T01:52:14;97677.00;;;-1.30
8227;BMP180;4154;48.810;9.012;2023-03-01T01:54:58;97680.00;;;-1.30
8227;BMP180;4154;48.810;9.012;2023-03-01T01:57:32;97685.00;;;-1.40
8227;BMP180;4154;48.810;9.012;2023-03-01T02:00:05;97678.00;;;-1.50
8227;BMP180;4154;48.810;9.012;2023-03-01T02:02:31;97668.00;;;-1.50
8227;BMP180;4154;48.810;9.012;2023-03-01T02:07:58;97679.00;;;-1.60
8227;BMP180;4154;48.810;9.012;2023-03-01T02:10:25;97666.00;;;-1.60
8227;BMP180;4154;48.810;9.012;2023-03-01T02:12:55;97670.00;;;-1.60
8227;BMP180;4154;48.810;9.012;2023-03-01T02:15:23;97662.00;;;-1.70
8227;BMP180;4154;48.810;9.012;2023-03-01T02:17:49;97667.00;;;-1.70
8227;BMP180;4154;48.810;9.012;2023-03-01T02:20:30;97664.00;;;-1.70
8227;BMP180;4154;48.810;9.012;2023-03-01T02:22:59;97673.00;;;-1.60
8227;BMP180;4154;48.810;9.012;2023-03-01T02:28:04;97655.00;;;-1.50
8227;BMP180;4154;48.810;9.012;2023-03-01T02:30:33;97640.00;;;-1.60
8227;BMP180;4154;48.810;9.012;2023-03-01T02:33:02;97636.00;;;-1.50
8227;BMP180;4154;48.810;9.012;2023-03-01T02:35:38;97627.00;;;-1.60
8227;BMP180;4154;48.810;9.012;2023-03-01T02:38:07;97632.00;;;-1.60
8227;BMP180;4154;48.810;9.012;2023-03-01T02:40:35;97631.00;;;-1.60
8227;BMP180;4154;48.810;9.012;2023-03-01T02:43:08;97630.00;;;-1.60
8227;BMP180;4154;48.810;9.012;2023-03-01T02:45:34;97620.00;;;-1.50
8227;BMP180;4154;48.810;9.012;2023-03-01T02:47:59;97628.00;;;-1.50
8227;BMP180;4154;48.810;9.012;2023-03-01T02:53:41;97624.00;;;-1.50
8227;BMP180;4154;48.810;9.012;2023-03-01T02:56:08;97629.00;;;-1.50
8227;BMP180;4154;48.810;9.012;2023-03-01T02:58:40;97625.00;;;-1.50
8227;BMP180;4154;48.810;9.012;2023-03-01T03:01:12;97622.00;;;-1.60
8227;BMP180;4154;48.810;9.012;2023-03-01T03:03:41;97618.00;;;-1.50
8227;BMP180;4154;48.810;9.012;2023-03-01T03:06:07;97624.00;;;-1.60
8227;BMP180;4154;48.810;9.012;2023-03-01T03:08:33;97611.00;;;-1.60
8227;BMP180;4154;48.810;9.012;2023-03-01T03:10:58;97612.00;;;-1.50
8227;BMP180;4154;48.810;9.012;2023-03-01T03:13:24;97611.00;;;-1.50
8227;BMP180;4154;48.810;9.012;2023-03-01T03:15:55;97610.00;;;-1.40
8227;BMP180;4154;48.810;9.012;2023-03-01T03:18:23;97611.00;;;-1.40
8227;BMP180;4154;48.810;9.012;2023-03-01T03:20:53;97608.00;;;-1.40
8227;BMP180;4154;48.810;9.012;2023-03-01T03:23:20;97600.00;;;-1.30
8227;BMP180;4154;48.810;9.012;2023-03-01T03:25:49;97599.00;;;-1.30
8227;BMP180;4154;48.810;9.012;2023-03-01T03:28:16;97597.00;;;-1.30
8227;BMP180;4154;48.810;9.012;2023-03-01T03:30:42;97605.00;;;-1.20
8227;BMP180;4154;48.810;9.012;2023-03-01T03:33:10;97597.00;;;-1.20
8227;BMP180;4154;48.810;9.012;2023-03-01T03:35:49;97598.00;;;-1.20
8227;BMP180;4154;48.810;9.012;2023-03-01T03:38:18;97583.00;;;-1.30
8227;BMP180;4154;48.810;9.012;2023-03-01T03:40:48;97591.00;;;-1.50
8227;BMP180;4154;48.810;9.012;2023-03-01T03:43:21;97594.00;;;-1.40
8227;BMP180;4154;48.810;9.012;2023-03-01T03:45:50;97588.00;;;-1.40
8227;BMP180;4154;48.810;9.012;2023-03-01T03:48:17;97597.00;;;-1.40
8227;BMP180;4154;48.810;9.012;2023-03-01T03:50:49;97600.00;;;-1.30
8227;BMP180;4154;48.810;9.012;2023-03-01T03:53:15;97594.00;;;-1.30
8227;BMP180;4154;48.810;9.012;2023-03-01T03:55:41;97599.00;;;-1.20
8227;BMP180;4154;48.810;9.012;2023-03-01T03:58:09;97586.00;;;-1.30
8227;BMP180;4154;48.810;9.012;2023-03-01T04:00:42;97586.00;;;-1.20
8227;BMP180;4154;48.810;9.012;2023-03-01T04:03:09;97574.00;;;-1.20
8227;BMP180;4154;48.810;9.012;2023-03-01T04:05:39;97588.00;;;-1.20
8227;BMP180;4154;48.810;9.012;2023-03-01T04:08:05;97576.00;;;-1.30
8227;BMP180;4154;48.810;9.012;2023-03-01T04:13:03;97566.00;;;-1.30
8227;BMP180;4154;48.810;9.012;2023-03-01T04:15:30;97569.00;;;-1.30
8227;BMP180;4154;48.810;9.012;2023-03-01T04:17:56;97566.00;;;-1.30
8227;BMP180;4154;48.810;9.012;2023-03-01T04:20:28;97573.00;;;-1.40
8227;BMP180;4154;48.810;9.012;2023-03-01T04:25:44;97564.00;;;-1.30
8227;BMP180;4154;48.810;9.012;2023-03-01T04:28:11;97561.00;;;-1.30
8227;BMP180;4154;48.810;9.012;2023-03-01T04:30:38;97557.00;;;-1.30
8227;BMP180;4154;48.810;9.012;2023-03-01T04:33:06;97563.00;;;-1.30
8227;BMP180;4154;48.810;9.012;2023-03-01T04:35:32;97555.00;;;-1.30
8227;BMP180;4154;48.810;9.012;2023-03-01T04:37:59;97555.00;;;-1.30
8227;BMP180;4154;48.810;9.012;2023-03-01T04:40:25;97566.00;;;-1.30
8227;BMP180;4154;48.810;9.012;2023-03-01T04:42:52;97565.00;;;-1.30
8227;BMP180;4154;48.810;9.012;2023-03-01T04:45:18;97557.00;;;-1.30
8227;BMP180;4154;48.810;9.012;2023-03-01T04:47:45;97562.00;;;-1.30
8227;BMP180;4154;48.810;9.012;2023-03-01T04:50:14;97568.00;;;-1.30
8227;BMP180;4154;48.810;9.012;2023-03-01T04:52:41;97572.00;;;-1.30
8227;BMP180;4154;48.810;9.012;2023-03-01T04:55:08;97568.00;;;-1.30
8227;BMP180;4154;48.810;9.012;2023-03-01T04:57:35;97573.00;;;-1.40
8227;BMP180;4154;48.810;9.012;2023-03-01T05:00:00;97563.00;;;-1.30
8227;BMP180;4154;48.810;9.012;2023-03-01T05:02:26;97560.00;;;-1.30
8227;BMP180;4154;48.810;9.012;2023-03-01T05:04:52;97565.00;;;-1.20
8227;BMP180;4154;48.810;9.012;2023-03-01T05:07:17;97563.00;;;-1.20
8227;BMP180;4154;48.810;9.012;2023-03-01T05:09:48;97565.00;;;-1.10
8227;BMP180;4154;48.810;9.012;2023-03-01T05:12:14;97562.00;;;-1.00
8227;BMP180;4154;48.810;9.012;2023-03-01T05:14:41;97558.00;;;-1.00
8227;BMP180;4154;48.810;9.012;2023-03-01T05:17:07;97561.00;;;-1.10
8227;BMP180;4154;48.810;9.012;2023-03-01T05:19:33;97558.00;;;-1.10
8227;BMP180;4154;48.810;9.012;2023-03-01T05:21:59;97554.00;;;-1.10
8227;BMP180;4154;48.810;9.012;2023-03-01T05:24:34;97551.00;;;-1.20
8227;BMP180;4154;48.810;9.012;2023-03-01T05:27:01;97556.00;;;-1.10
8227;BMP180;4154;48.810;9.012;2023-03-01T05:29:30;97563.00;;;-1.10
8227;BMP180;4154;48.810;9.012;2023-03-01T05:31:59;97560.00;;;-1.20
8227;BMP180;4154;48.810;9.012;2023-03-01T05:34:29;97565.00;;;-1.20
8227;BMP180;4154;48.810;9.012;2023-03-01T05:36:55;97556.00;;;-1.10
8227;BMP180;4154;48.810;9.012;2023-03-01T05:39:26;97562.00;;;-1.00
8227;BMP180;4154;48.810;9.012;2023-03-01T05:41:59;97554.00;;;-1.00
8227;BMP180;4154;48.810;9.012;2023-03-01T05:44:26;97563.00;;;-1.00
8227;BMP180;4154;48.810;9.012;2023-03-01T05:46:53;97569.00;;;-0.90
8227;BMP180;4154;48.810;9.012;2023-03-01T05:49:20;97573.00;;;-1.00
8227;BMP180;4154;48.810;9.012;2023-03-01T05:51:52;97559.00;;;-1.00
8227;BMP180;4154;48.810;9.012;2023-03-01T05:54:20;97556.00;;;-0.90
8227;BMP180;4154;48.810;9.012;2023-03-01T05:56:46;97555.00;;;-0.90
8227;BMP180;4154;48.810;9.012;2023-03-01T05:59:12;97561.00;;;-0.90
8227;BMP180;4154;48.810;9.012;2023-03-01T06:01:39;97551.00;;;-1.10
8227;BMP180;4154;48.810;9.012;2023-03-01T06:04:05;97557.00;;;-1.00
8227;BMP180;4154;48.810;9.012;2023-03-01T06:06:34;97541.00;;;-0.90
8227;BMP180;4154;48.810;9.012;2023-03-01T06:09:04;97546.00;;;-0.90
8227;BMP180;4154;48.810;9.012;2023-03-01T06:11:30;97546.00;;;-0.90
8227;BMP180;4154;48.810;9.012;2023-03-01T06:13:55;97548.00;;;-0.90
8227;BMP180;4154;48.810;9.012;2023-03-01T06:16:21;97545.00;;;-0.90
8227;BMP180;4154;48.810;9.012;2023-03-01T06:18:47;97537.00;;;-0.90
8227;BMP180;4154;48.810;9.012;2023-03-01T06:21:12;97547.00;;;-0.90
8227;BMP180;4154;48.810;9.012;2023-03-01T06:23:38;97554.00;;;-0.90
8227;BMP180;4154;48.810;9.012;2023-03-01T06:26:08;97555.00;;;-0.80
8227;BMP180;4154;48.810;9.012;2023-03-01T06:28:35;97547.00;;;-0.90
8227;BMP180;4154;48.810;9.012;2023-03-01T06:31:01;97550.00;;;-1.10
8227;BMP180;4154;48.810;9.012;2023-03-01T06:33:28;97550.00;;;-1.00
8227;BMP180;4154;48.810;9.012;2023-03-01T06:35:57;97552.00;;;-1.00
8227;BMP180;4154;48.810;9.012;2023-03-01T06:38:24;97547.00;;;-1.00
8227;BMP180;4154;48.810;9.012;2023-03-01T06:40:54;97547.00;;;-1.00
8227;BMP180;4154;48.810;9.012;2023-03-01T06:43:23;97537.00;;;-0.90
8227;BMP180;4154;48.810;9.012;2023-03-01T06:45:49;97531.00;;;-1.00
8227;BMP180;4154;48.810;9.012;2023-03-01T06:48:15;97541.00;;;-0.90
8227;BMP180;4154;48.810;9.012;2023-03-01T06:50:41;97543.00;;;-0.90
8227;BMP180;4154;48.810;9.012;2023-03-01T06:53:07;97542.00;;;-0.90
8227;BMP180;4154;48.810;9.012;2023-03-01T06:55:33;97537.00;;;-1.00
8227;BMP180;4154;48.810;9.012;2023-03-01T06:58:01;97537.00;;;-1.00
8227;BMP180;4154;48.810;9.012;2023-03-01T07:00:28;97534.00;;;-1.00
8227;BMP180;4154;48.810;9.012;2023-03-01T07:02:54;97560.00;;;-1.20
8227;BMP180;4154;48.810;9.012;2023-03-01T07:05:20;97551.00;;;-1.10
8227;BMP180;4154;48.810;9.012;2023-03-01T07:07:46;97549.00;;;-1.00
8227;BMP180;4154;48.810;9.012;2023-03-01T07:10:12;97537.00;;;-1.00
8227;BMP180;4154;48.810;9.012;2023-03-01T07:12:38;97543.00;;;-1.10
8227;BMP180;4154;48.810;9.012;2023-03-01T07:15:04;97536.00;;;-1.10
8227;BMP180;4154;48.810;9.012;2023-03-01T07:17:30;97542.00;;;-1.00
8227;BMP180;4154;48.810;9.012;2023-03-01T07:19:56;97533.00;;;-1.10
8227;BMP180;4154;48.810;9.012;2023-03-01T07:22:22;97540.00;;;-1.10
8227;BMP180;4154;48.810;9.012;2023-03-01T07:24:48;97534.00;;;-1.20
8227;BMP180;4154;48.810;9.012;2023-03-01T07:27:14;97521.00;;;-1.30
8227;BMP180;4154;48.810;9.012;2023-03-01T07:29:40;97528.00;;;-1.10
8227;BMP180;4154;48.810;9.012;2023-03-01T07:32:06;97517.00;;;-1.20
8227;BMP180;4154;48.810;9.012;2023-03-01T07:34:32;97520.00;;;-1.20
8227;BMP180;4154;48.810;9.012;2023-03-01T07:36:58;97515.00;;;-1.10
8227;BMP180;4154;48.810;9.012;2023-03-01T07:39:23;97522.00;;;-1.20
8227;BMP180;4154;48.810;9.012;2023-03-01T07:41:50;97520.00;;;-1.20
8227;BMP180;4154;48.810;9.012;2023-03-01T07:44:16;97510.00;;;-1.20
8227;BMP180;4154;48.810;9.012;2023-03-01T07:46:43;97517.00;;;-1.10
8227;BMP180;4154;48.810;9.012;2023-03-01T07:49:09;97511.00;;;-1.10
8227;BMP180;4154;48.810;9.012;2023-03-01T07:51:35;97513.00;;;-1.20
8227;BMP180;4154;48.810;9.012;2023-03-01T07:54:00;97517.00;;;-1.20
8227;BMP180;4154;48.810;9.012;2023-03-01T07:56:26;97511.00;;;-1.20
8227;BMP180;4154;48.810;9.012;2023-03-01T07:58:52;97496.00;;;-1.20
8227;BMP180;4154;48.810;9.012;2023-03-01T08:01:22;97504.00;;;-1.20
8227;BMP180;4154;48.810;9.012;2023-03-01T08:03:48;97500.00;;;-1.10
8227;BMP180;4154;48.810;9.012;2023-03-01T08:06:16;97500.00;;;-1.00
8227;BMP180;4154;48.810;9.012;2023-03-01T08:08:42;97493.00;;;-0.90
8227;BMP180;4154;48.810;9.012;2023-03-01T08:11:12;97498.00;;;-0.90
8227;BMP180;4154;48.810;9.012;2023-03-01T08:13:38;97501.00;;;-0.80
8227;BMP180;4154;48.810;9.012;2023-03-01T08:16:07;97495.00;;;-0.80
8227;BMP180;4154;48.810;9.012;2023-03-01T08:18:33;97504.00;;;-0.80
8227;BMP180;4154;48.810;9.012;2023-03-01T08:21:09;97505.00;;;-0.70
8227;BMP180;4154;48.810;9.012;2023-03-01T08:23:35;97503.00;;;-0.70
8227;BMP180;4154;48.810;9.012;2023-03-01T08:26:12;97502.00;;;-0.70
8227;BMP180;4154;48.810;9.012;2023-03-01T08:28:39;97497.00;;;-0.60
8227;BMP180;4154;48.810;9.012;2023-03-01T08:31:18;97501.00;;;-0.40
8227;BMP180;4154;48.810;9.012;2023-03-01T08:33:46;97498.00;;;-0.40
8227;BMP180;4154;48.810;9.012;2023-03-01T08:36:17;97495.00;;;-0.40
8227;BMP180;4154;48.810;9.012;2023-03-01T08:38:43;97495.00;;;-0.40
8227;BMP180;4154;48.810;9.012;2023-03-01T08:41:09;97495.00;;;-0.20
8227;BMP180;4154;48.810;9.012;2023-03-01T08:43:35;97488.00;;;-0.30
8227;BMP180;4154;48.810;9.012;2023-03-01T08:46:00;97483.00;;;-0.10
8227;BMP180;4154;48.810;9.012;2023-03-01T08:48:28;97488.00;;;-0.10
8227;BMP180;4154;48.810;9.012;2023-03-01T08:50:54;97491.00;;;-0.10
8227;BMP180;4154;48.810;9.012;2023-03-01T08:53:20;97487.00;;;-0.10
8227;BMP180;4154;48.810;9.012;2023-03-01T08:55:46;97480.00;;;-0.10
8227;BMP180;4154;48.810;9.012;2023-03-01T08:58:12;97484.00;;;-0.10
8227;BMP180;4154;48.810;9.012;2023-03-01T09:00:38;97480.00;;;0.10
8227;BMP180;4154;48.810;9.012;2023-03-01T09:03:04;97484.00;;;0.10
8227;BMP180;4154;48.810;9.012;2023-03-01T09:05:33;97469.00;;;0.20
8227;BMP180;4154;48.810;9.012;2023-03-01T09:07:59;97474.00;;;0.30
8227;BMP180;4154;48.810;9.012;2023-03-01T09:10:25;97461.00;;;0.30
8227;BMP180;4154;48.810;9.012;2023-03-01T09:12:51;97461.00;;;0.30
8227;BMP180;4154;48.810;9.012;2023-03-01T09:15:17;97470.00;;;0.40
8227;BMP180;4154;48.810;9.012;2023-03-01T09:17:43;97470.00;;;0.50
8227;BMP180;4154;48.810;9.012;2023-03-01T09:20:10;97460.00;;;0.60
8227;BMP180;4154;48.810;9.012;2023-03-01T09:22:35;97448.00;;;0.70
8227;BMP180;4154;48.810;9.012;2023-03-01T09:25:01;97456.00;;;0.70
8227;BMP180;4154;48.810;9.012;2023-03-01T09:27:27;97442.00;;;0.80
8227;BMP180;4154;48.810;9.012;2023-03-01T09:29:53;97443.00;;;0.90
8227;BMP180;4154;48.810;9.012;2023-03-01T09:32:21;97442.00;;;1.00
8227;BMP180;4154;48.810;9.012;2023-03-01T09:34:47;97445.00;;;0.90
8227;BMP180;4154;48.810;9.012;2023-03-01T09:37:35;97439.00;;;0.90
8227;BMP180;4154;48.810;9.012;2023-03-01T09:40:04;97437.00;;;1.00
8227;BMP180;4154;48.810;9.012;2023-03-01T09:42:35;97446.00;;;1.10
8227;BMP180;4154;48.810;9.012;2023-03-01T09:45:26;97442.00;;;1.20
8227;BMP180;4154;48.810;9.012;2023-03-01T09:47:53;97446.00;;;1.10
8227;BMP180;4154;48.810;9.012;2023-03-01T09:50:21;97449.00;;;1.10
8227;BMP180;4154;48.810;9.012;2023-03-01T09:53:12;97450.00;;;1.10
8227;BMP180;4154;48.810;9.012;2023-03-01T09:56:05;97445.00;;;1.10
8227;BMP180;4154;48.810;9.012;2023-03-01T10:01:59;97445.00;;;1.30
8227;BMP180;4154;48.810;9.012;2023-03-01T10:09:39;97428.00;;;1.40
8227;BMP180;4154;48.810;9.012;2023-03-01T10:12:23;97430.00;;;1.50
8227;BMP180;4154;48.810;9.012;2023-03-01T10:15:09;97424.00;;;1.60
8227;BMP180;4154;48.810;9.012;2023-03-01T10:17:58;97420.00;;;1.70
8227;BMP180;4154;48.810;9.012;2023-03-01T10:20:42;97414.00;;;1.70
8227;BMP180;4154;48.810;9.012;2023-03-01T10:23:10;97416.00;;;1.80
8227;BMP180;4154;48.810;9.012;2023-03-01T10:31:19;97404.00;;;1.90
8227;BMP180;4154;48.810;9.012;2023-03-01T10:33:45;97411.00;;;2.00
8227;BMP180;4154;48.810;9.012;2023-03-01T10:36:13;97412.00;;;2.00
8227;BMP180;4154;48.810;9.012;2023-03-01T10:38:56;97396.00;;;2.10
8227;BMP180;4154;48.810;9.012;2023-03-01T10:41:26;97408.00;;;2.20
8227;BMP180;4154;48.810;9.012;2023-03-01T10:43:58;97394.00;;;2.20
8227;BMP180;4154;48.810;9.012;2023-03-01T10:46:33;97392.00;;;2.30
8227;BMP180;4154;48.810;9.012;2023-03-01T10:49:20;97399.00;;;2.20
8227;BMP180;4154;48.810;9.012;2023-03-01T10:51:49;97392.00;;;2.30
8227;BMP180;4154;48.810;9.012;2023-03-01T10:54:33;97393.00;;;2.30
8227;BMP180;4154;48.810;9.012;2023-03-01T10:57:02;97403.00;;;2.40
8227;BMP180;4154;48.810;9.012;2023-03-01T10:59:38;97395.00;;;2.50
8227;BMP180;4154;48.810;9.012;2023-03-01T11:02:36;97393.00;;;2.60
8227;BMP180;4154;48.810;9.012;2023-03-01T11:05:24;97372.00;;;2.70
8227;BMP180;4154;48.810;9.012;2023-03-01T11:07:58;97369.00;;;2.80
8227;BMP180;4154;48.810;9.012;2023-03-01T11:10:35;97357.00;;;2.70
8227;BMP180;4154;48.810;9.012;2023-03-01T11:13:16;97359.00;;;2.90
8227;BMP180;4154;48.810;9.012;2023-03-01T11:15:42;97355.00;;;2.90
8227;BMP180;4154;48.810;9.012;2023-03-01T11:18:21;97366.00;;;3.00
8227;BMP180;4154;48.810;9.012;2023-03-01T11:20:48;97354.00;;;3.10
8227;BMP180;4154;48.810;9.012;2023-03-01T11:23:16;97354.00;;;3.20
8227;BMP180;4154;48.810;9.012;2023-03-01T11:26:09;97344.00;;;3.30
8227;BMP180;4154;48.810;9.012;2023-03-01T11:28:40;97347.00;;;3.40
8227;BMP180;4154;48.810;9.012;2023-03-01T11:31:10;97344.00;;;3.50
8227;BMP180;4154;48.810;9.012;2023-03-01T11:36:40;97327.00;;;3.60
8227;BMP180;4154;48.810;9.012;2023-03-01T11:39:47;97335.00;;;3.80
8227;BMP180;4154;48.810;9.012;2023-03-01T11:42:31;97319.00;;;3.90
8227;BMP180;4154;48.810;9.012;2023-03-01T11:45:10;97314.00;;;3.90
8227;BMP180;4154;48.810;9.012;2023-03-01T11:50:47;97313.00;;;4.10
8227;BMP180;4154;48.810;9.012;2023-03-01T12:02:29;97310.00;;;4.50
8227;BMP180;4154;48.810;9.012;2023-03-01T12:08:28;97279.00;;;4.70
8227;BMP180;4154;48.810;9.012;2023-03-01T12:11:33;97281.00;;;4.80
8227;BMP180;4154;48.810;9.012;2023-03-01T12:17:25;97271.00;;;5.00
8227;BMP180;4154;48.810;9.012;2023-03-01T12:25:48;97258.00;;;5.10
8227;BMP180;4154;48.810;9.012;2023-03-01T12:37:31;97236.00;;;5.20
8227;BMP180;4154;48.810;9.012;2023-03-01T12:43:51;97229.00;;;5.30
8227;BMP180;4154;48.810;9.012;2023-03-01T12:49:30;97224.00;;;5.30
8227;BMP180;4154;48.810;9.012;2023-03-01T12:52:14;97230.00;;;5.30
8227;BMP180;4154;48.810;9.012;2023-03-01T12:54:42;97219.00;;;5.40
8227;BMP180;4154;48.810;9.012;2023-03-01T12:57:26;97211.00;;;5.40
8227;BMP180;4154;48.810;9.012;2023-03-01T13:09:38;97205.00;;;5.70
8227;BMP180;4154;48.810;9.012;2023-03-01T13:12:45;97189.00;;;5.70
8227;BMP180;4154;48.810;9.012;2023-03-01T13:17:52;97191.00;;;5.90
8227;BMP180;4154;48.810;9.012;2023-03-01T13:20:34;97187.00;;;6.00
8227;BMP180;4154;48.810;9.012;2023-03-01T13:23:07;97183.00;;;6.10
8227;BMP180;4154;48.810;9.012;2023-03-01T13:25:35;97183.00;;;6.00
8227;BMP180;4154;48.810;9.012;2023-03-01T13:33:58;97183.00;;;6.00
8227;BMP180;4154;48.810;9.012;2023-03-01T13:47:05;97190.00;;;6.20
8227;BMP180;4154;48.810;9.012;2023-03-01T13:49:56;97182.00;;;6.30
8227;BMP180;4154;48.810;9.012;2023-03-01T13:52:44;97181.00;;;6.30
8227;BMP180;4154;48.810;9.012;2023-03-01T13:55:18;97181.00;;;6.40
8227;BMP180;4154;48.810;9.012;2023-03-01T13:57:51;97183.00;;;6.40
8227;BMP180;4154;48.810;9.012;2023-03-01T14:00:34;97182.00;;;6.30
8227;BMP180;4154;48.810;9.012;2023-03-01T14:03:11;97177.00;;;6.30
8227;BMP180;4154;48.810;9.012;2023-03-01T14:05:39;97177.00;;;6.30
8227;BMP180;4154;48.810;9.012;2023-03-01T14:08:23;97166.00;;;6.30
8227;BMP180;4154;48.810;9.012;2023-03-01T14:19:57;97160.00;;;6.30
8227;BMP180;4154;48.810;9.012;2023-03-01T14:22:30;97162.00;;;6.40
8227;BMP180;4154;48.810;9.012;2023-03-01T14:25:17;97167.00;;;6.40
8227;BMP180;4154;48.810;9.012;2023-03-01T14:27:51;97176.00;;;6.40
8227;BMP180;4154;48.810;9.012;2023-03-01T14:30:24;97187.00;;;6.40
8227;BMP180;4154;48.810;9.012;2023-03-01T14:33:03;97184.00;;;6.50
8227;BMP180;4154;48.810;9.012;2023-03-01T14:35:36;97188.00;;;6.50
8227;BMP180;4154;48.810;9.012;2023-03-01T14:38:03;97192.00;;;6.40
8227;BMP180;4154;48.810;9.012;2023-03-01T14:40:34;97193.00;;;6.50
8227;BMP180;4154;48.810;9.012;2023-03-01T14:43:09;97193.00;;;6.50
8227;BMP180;4154;48.810;9.012;2023-03-01T14:45:35;97183.00;;;6.50
8227;BMP180;4154;48.810;9.012;2023-03-01T14:48:04;97201.00;;;6.20
8227;BMP180;4154;48.810;9.012;2023-03-01T14:50:34;97197.00;;;6.20
8227;BMP180;4154;48.810;9.012;2023-03-01T14:53:06;97198.00;;;6.00
8227;BMP180;4154;48.810;9.012;2023-03-01T14:55:38;97205.00;;;6.00
8227;BMP180;4154;48.810;9.012;2023-03-01T14:58:13;97203.00;;;5.90
8227;BMP180;4154;48.810;9.012;2023-03-01T15:00:55;97206.00;;;6.00
8227;BMP180;4154;48.810;9.012;2023-03-01T15:03:49;97206.00;;;5.90
8227;BMP180;4154;48.810;9.012;2023-03-01T15:06:22;97202.00;;;6.10
8227;BMP180;4154;48.810;9.012;2023-03-01T15:08:53;97205.00;;;6.00
8227;BMP180;4154;48.810;9.012;2023-03-01T15:11:30;97209.00;;;6.10
8227;BMP180;4154;48.810;9.012;2023-03-01T15:13:56;97209.00;;;6.30
8227;BMP180;4154;48.810;9.012;2023-03-01T15:16:30;97208.00;;;6.40
8227;BMP180;4154;48.810;9.012;2023-03-01T15:19:01;97211.00;;;6.30
8227;BMP180;4154;48.810;9.012;2023-03-01T15:21:36;97194.00;;;6.10
8227;BMP180;4154;48.810;9.012;2023-03-01T15:26:56;97193.00;;;6.20
8227;BMP180;4154;48.810;9.012;2023-03-01T15:29:29;97198.00;;;6.10
8227;BMP180;4154;48.810;9.012;2023-03-01T15:32:01;97201.00;;;6.20
8227;BMP180;4154;48.810;9.012;2023-03-01T15:34:37;97204.00;;;6.20
8227;BMP180;4154;48.810;9.012;2023-03-01T15:37:15;97202.00;;;5.90
8227;BMP180;4154;48.810;9.012;2023-03-01T15:39:57;97208.00;;;5.80
8227;BMP180;4154;48.810;9.012;2023-03-01T15:42:37;97206.00;;;5.80
8227;BMP180;4154;48.810;9.012;2023-03-01T15:47:48;97202.00;;;5.80
8227;BMP180;4154;48.810;9.012;2023-03-01T15:50:27;97192.00;;;5.60
8227;BMP180;4154;48.810;9.012;2023-03-01T15:52:55;97185.00;;;5.70
8227;BMP180;4154;48.810;9.012;2023-03-01T15:55:28;97204.00;;;5.60
8227;BMP180;4154;48.810;9.012;2023-03-01T15:58:19;97197.00;;;5.60
8227;BMP180;4154;48.810;9.012;2023-03-01T16:00:47;97179.00;;;5.60
8227;BMP180;4154;48.810;9.012;2023-03-01T16:03:14;97183.00;;;5.50
8227;BMP180;4154;48.810;9.012;2023-03-01T16:05:48;97176.00;;;5.50
8227;BMP180;4154;48.810;9.012;2023-03-01T16:08:14;97177.00;;;5.60
8227;BMP180;4154;48.810;9.012;2023-03-01T16:10:41;97169.00;;;5.50
8227;BMP180;4154;48.810;9.012;2023-03-01T16:13:11;97173.00;;;5.60
8227;BMP180;4154;48.810;9.012;2023-03-01T16:15:38;97172.00;;;5.60
8227;BMP180;4154;48.810;9.012;2023-03-01T16:18:05;97172.00;;;5.60
8227;BMP180;4154;48.810;9.012;2023-03-01T16:20:32;97174.00;;;5.50
8227;BMP180;4154;48.810;9.012;2023-03-01T16:23:00;97174.00;;;5.40
8227;BMP180;4154;48.810;9.012;2023-03-01T16:25:26;97166.00;;;5.50
8227;BMP180;4154;48.810;9.012;2023-03-01T16:27:52;97177.00;;;5.30
8227;BMP180;4154;48.810;9.012;2023-03-01T16:30:21;97169.00;;;5.40
8227;BMP180;4154;48.810;9.012;2023-03-01T16:32:49;97173.00;;;5.50
8227;BMP180;4154;48.810;9.012;2023-03-01T16:35:19;97165.00;;;5.40
8227;BMP180;4154;48.810;9.012;2023-03-01T16:37:47;97180.00;;;5.40
8227;BMP180;4154;48.810;9.012;2023-03-01T16:40:26;97183.00;;;5.30
8227;BMP180;4154;48.810;9.012;2023-03-01T16:42:54;97183.00;;;5.20
8227;BMP180;4154;48.810;9.012;2023-03-01T16:45:34;97186.00;;;5.20
8227;BMP180;4154;48.810;9.012;2023-03-01T16:48:02;97186.00;;;5.20
8227;BMP180;4154;48.810;9.012;2023-03-01T16:50:28;97183.00;;;5.20
8227;BMP180;4154;48.810;9.012;2023-03-01T16:52:53;97191.00;;;5.10
8227;BMP180;4154;48.810;9.012;2023-03-01T16:55:19;97183.00;;;5.10
8227;BMP180;4154;48.810;9.012;2023-03-01T16:57:45;97189.00;;;5.00